Time;durP1;ratioP1;P1;durP2;ratioP2;P2;SDS_P1;SDS_P2;PMS_P1;PMS_P2;Temp;Humidity;BMP_temperature;BMP_pressure;BME280_temperature;BME280_humidity;BME280_pressure;Samples;Min_cycle;Max_cycle;Signal;HPM_P1;HPM_P2
2023/10/22 00:02:19;;;;;;;5.87;3.50;;;;;;;9.47;100.00;99717.88;5049535;28;20033;-77
2023/10/22 00:04:45;;;;;;;9.37;3.30;;;;;;;9.49;100.00;99720.38;4994637;28;20033;-79
2023/10/22 00:07:14;;;;;;;6.77;2.73;;;;;;;9.49;100.00;99721.19;5004774;28;20088;-77
2023/10/22 00:09:39;;;;;;;10.10;2.90;;;;;;;9.46;100.00;99715.41;5014550;28;20024;-78
2023/10/22 00:12:05;;;;;;;8.27;2.80;;;;;;;9.39;100.00;99722.44;5004146;28;20403;-78
2023/10/22 00:14:30;;;;;;;6.85;3.17;;;;;;;9.43;100.00;99726.41;5018198;28;21032;-79
2023/10/22 00:16:56;;;;;;;3.38;2.50;;;;;;;9.51;100.00;99734.34;4962276;28;20035;-78
2023/10/22 00:19:21;;;;;;;6.97;2.57;;;;;;;9.51;100.00;99731.69;5024219;28;20053;-78
2023/10/22 00:21:47;;;;;;;4.33;3.27;;;;;;;9.39;100.00;99723.28;5049120;28;20028;-78
2023/10/22 00:24:12;;;;;;;7.03;3.00;;;;;;;9.45;100.00;99727.88;5050927;28;20043;-77
2023/10/22 00:26:39;;;;;;;3.63;2.87;;;;;;;9.42;100.00;99724.78;5029713;28;20278;-79
2023/10/22 00:29:05;;;;;;;4.88;2.72;;;;;;;9.39;100.00;99728.63;4949685;28;20541;-78
2023/10/22 00:31:31;;;;;;;7.97;3.03;;;;;;;9.47;100.00;99725.88;5046989;28;20032;-79
2023/10/22 00:33:56;;;;;;;6.67;2.67;;;;;;;9.46;100.00;99731.41;4992973;28;20040;-77
2023/10/22 00:36:24;;;;;;;3.97;2.67;;;;;;;9.53;100.00;99727.00;5023529;28;20192;-80
2023/10/22 00:38:52;;;;;;;3.88;2.72;;;;;;;9.47;100.00;99717.06;5032447;28;20407;-79
2023/10/22 00:41:18;;;;;;;5.38;2.83;;;;;;;9.44;100.00;99730.75;5048691;28;20478;-78
2023/10/22 00:43:43;;;;;;;7.82;2.42;;;;;;;9.47;100.00;99733.88;5042102;28;20081;-79
2023/10/22 00:46:24;;;;;;;3.83;2.40;;;;;;;9.48;100.00;99734.69;4994518;28;20061;-77
2023/10/22 00:48:51;;;;;;;5.85;3.63;;;;;;;9.39;100.00;99728.63;4942363;29;20118;-79
2023/10/22 00:51:17;;;;;;;3.22;2.55;;;;;;;9.43;100.00;99737.06;4988902;28;20054;-77
2023/10/22 00:53:44;;;;;;;3.63;2.47;;;;;;;9.43;100.00;99726.41;5026463;28;20364;-78
2023/10/22 00:56:11;;;;;;;4.97;3.10;;;;;;;9.46;100.00;99726.06;5035199;28;20123;-79
2023/10/22 00:58:37;;;;;;;9.70;3.10;;;;;;;9.37;100.00;99729.81;4932952;28;20027;-78
2023/10/22 01:01:07;;;;;;;8.20;2.80;;;;;;;9.42;100.00;99725.59;4987720;28;20037;-78
2023/10/22 01:03:33;;;;;;;4.80;2.63;;;;;;;9.43;100.00;99732.56;5050484;28;20025;-77
2023/10/22 01:06:01;;;;;;;3.95;2.30;;;;;;;9.37;100.00;99727.16;4993029;28;20081;-78
2023/10/22 01:08:26;;;;;;;3.35;1.95;;;;;;;9.54;100.00;99727.81;5034946;28;20037;-78
2023/10/22 01:10:52;;;;;;;5.00;2.03;;;;;;;9.50;100.00;99725.53;5022422;28;20056;-78
2023/10/22 01:13:17;;;;;;;4.90;2.20;;;;;;;9.39;100.00;99723.28;5068965;28;20056;-78
2023/10/22 01:15:42;;;;;;;7.67;2.53;;;;;;;9.39;100.00;99727.78;5052217;28;20475;-79
2023/10/22 01:18:08;;;;;;;7.13;2.20;;;;;;;9.43;100.00;99726.41;5035379;28;20032;-77
2023/10/22 01:20:33;;;;;;;8.30;2.43;;;;;;;9.42;100.00;99722.09;5001318;28;20410;-78
2023/10/22 01:22:59;;;;;;;7.37;3.60;;;;;;;9.33;100.00;99717.84;5045467;22;20047;-77
2023/10/22 01:25:25;;;;;;;;;;;;;;;9.34;100.00;99716.84;5002856;28;20071;-78
2023/10/22 01:27:50;;;;;;;7.13;1.95;;;;;;;9.34;100.00;99719.50;4989715;28;20011;-77
2023/10/22 01:30:16;;;;;;;3.40;1.80;;;;;;;9.41;100.00;99713.28;5034873;28;20079;-79
2023/10/22 01:32:41;;;;;;;8.07;2.30;;;;;;;9.38;100.00;99718.13;5036551;28;20030;-78
2023/10/22 01:35:08;;;;;;;6.13;2.10;;;;;;;9.24;100.00;99703.78;5019248;28;20037;-78
2023/10/22 01:37:36;;;;;;;4.40;1.95;;;;;;;9.23;100.00;99713.59;5000759;28;20033;-76
2023/10/22 01:40:03;;;;;;;4.07;2.00;;;;;;;9.26;100.00;99726.56;5033999;28;20466;-78
2023/10/22 01:42:31;;;;;;;7.47;2.38;;;;;;;9.26;100.00;99710.56;5017042;28;20021;-78
2023/10/22 01:44:57;;;;;;;3.30;2.05;;;;;;;9.35;100.00;99718.50;5000438;28;20039;-76
2023/10/22 01:47:22;;;;;;;3.23;1.80;;;;;;;9.38;100.00;99704.81;5022366;28;20057;-78
2023/10/22 01:49:48;;;;;;;5.72;1.70;;;;;;;9.35;100.00;99708.66;5033688;28;20604;-77
2023/10/22 01:52:14;;;;;;;5.33;2.23;;;;;;;9.38;100.00;99702.97;4975922;28;20041;-77
2023/10/22 01:54:40;;;;;;;5.45;2.25;;;;;;;9.43;100.00;99697.09;5017436;28;20456;-77
2023/10/22 01:57:06;;;;;;;5.20;1.67;;;;;;;9.44;100.00;99702.25;4983281;28;20082;-78
2023/10/22 01:59:31;;;;;;;3.83;2.20;;;;;;;9.45;100.00;99695.09;4984933;28;20076;-77
2023/10/22 02:01:56;;;;;;;4.53;2.07;;;;;;;9.48;100.00;99697.38;4975871;28;20041;-78
2023/10/22 02:04:22;;;;;;;2.30;1.57;;;;;;;9.41;100.00;99689.31;4957160;28;20298;-77
2023/10/22 02:06:47;;;;;;;6.57;2.40;;;;;;;9.39;100.00;99693.13;5031537;28;20110;-76
2023/10/22 02:09:15;;;;;;;4.93;2.22;;;;;;;9.37;100.00;99690.69;4994638;28;20038;-77
2023/10/22 02:11:40;;;;;;;7.22;2.58;;;;;;;9.36;100.00;99682.84;4994865;28;20037;-77
2023/10/22 02:14:08;;;;;;;3.33;1.60;;;;;;;9.47;100.00;99685.91;4976419;28;20501;-78
2023/10/22 02:16:33;;;;;;;6.77;3.10;;;;;;;9.39;100.00;99674.50;4970790;28;20026;-77
2023/10/22 02:18:58;;;;;;;7.60;2.57;;;;;;;9.46;100.00;99686.09;4982098;28;20066;-78
2023/10/22 02:21:26;;;;;;;3.13;1.90;;;;;;;9.45;100.00;99673.78;4993333;28;20032;-77
2023/10/22 02:23:52;;;;;;;3.28;2.20;;;;;;;9.48;100.00;99676.06;5029527;28;20459;-78
2023/10/22 02:26:18;;;;;;;;;;;;;;;9.39;100.00;99662.03;4989693;28;20037;-77
2023/10/22 02:28:43;;;;;;;;;;;;;;;9.44;100.00;99662.31;5033976;28;19919;-77
2023/10/22 02:31:10;;;;;;;8.77;2.55;;;;;;;9.36;100.00;99665.03;5034279;28;19913;-78
2023/10/22 02:33:35;;;;;;;;;;;;;;;9.40;100.00;99662.84;4992862;28;20029;-77
2023/10/22 02:36:01;;;;;;;8.52;2.35;;;;;;;9.33;100.00;99659.25;5025594;28;19958;-78
2023/10/22 02:38:26;;;;;;;4.50;1.90;;;;;;;9.26;100.00;99651.97;5017839;28;20072;-78
2023/10/22 02:40:52;;;;;;;6.73;1.77;;;;;;;9.28;100.00;99667.78;5019388;28;20559;-77
2023/10/22 02:43:17;;;;;;;5.43;1.97;;;;;;;9.26;100.00;99662.63;5034257;28;20026;-78
2023/10/22 02:45:50;;;;;;;5.73;1.90;;;;;;;9.30;100.00;99665.78;4986876;28;20029;-78
2023/10/22 02:48:15;;;;;;;4.88;2.10;;;;;;;9.30;100.00;99657.78;5016207;28;20041;-78
2023/10/22 02:50:40;;;;;;;3.27;1.70;;;;;;;9.19;100.00;99656.38;4995688;28;20096;-78
2023/10/22 02:53:06;;;;;;;7.00;2.00;;;;;;;9.35;100.00;99668.72;4965021;28;20044;-76
2023/10/22 02:55:32;;;;;;;4.15;2.47;;;;;;;9.23;100.00;99663.00;5012082;28;20116;-77
2023/10/22 02:57:57;;;;;;;5.70;2.07;;;;;;;9.24;100.00;99659.31;4998323;28;20105;-78
2023/10/22 03:00:23;;;;;;;7.30;1.80;;;;;;;9.34;100.00;99668.88;5027699;28;20025;-78
2023/10/22 03:02:48;;;;;;;5.70;2.37;;;;;;;9.30;100.00;99663.94;4958704;28;20083;-78
2023/10/22 03:05:13;;;;;;;3.50;1.77;;;;;;;9.38;100.00;99657.69;4974541;28;20054;-78
2023/10/22 03:07:40;;;;;;;6.20;2.13;;;;;;;9.45;100.00;99652.47;4990499;28;20530;-78
2023/10/22 03:10:07;;;;;;;7.90;2.40;;;;;;;9.40;100.00;99650.34;4959819;28;20038;-77
2023/10/22 03:12:32;;;;;;;6.30;2.20;;;;;;;9.39;100.00;99650.53;4995477;28;20063;-77
2023/10/22 03:14:58;;;;;;;8.93;2.38;;;;;;;9.42;100.00;99659.00;5012248;28;20027;-75
2023/10/22 03:17:24;;;;;;;8.97;2.07;;;;;;;9.37;100.00;99649.91;4997325;28;20103;-78
2023/10/22 03:19:49;;;;;;;5.80;2.38;;;;;;;9.33;100.00;99654.75;4969075;28;20039;-78
2023/10/22 03:22:15;;;;;;;6.20;2.47;;;;;;;9.23;100.00;99649.69;4918883;28;20032;-75
2023/10/22 03:24:40;;;;;;;6.13;1.90;;;;;;;9.24;100.00;99655.81;5033071;28;20087;-76
2023/10/22 03:27:05;;;;;;;4.50;1.67;;;;;;;9.25;100.00;99655.66;5016481;28;20033;-78
2023/10/22 03:29:32;;;;;;;3.93;2.23;;;;;;;9.24;100.00;99658.50;5021923;28;20083;-78
2023/10/22 03:31:57;;;;;;;5.82;2.30;;;;;;;9.32;100.00;99665.56;5020090;28;20044;-77
2023/10/22 03:34:26;;;;;;;6.50;2.13;;;;;;;9.25;100.00;99653.00;5016419;28;20037;-77
2023/10/22 03:36:52;;;;;;;2.83;1.67;;;;;;;9.19;100.00;99653.69;5013911;28;20041;-77
2023/10/22 03:39:20;;;;;;;3.63;2.00;;;;;;;9.22;100.00;99653.34;4983197;28;20109;-78
2023/10/22 03:41:45;;;;;;;3.20;1.90;;;;;;;9.24;100.00;99651.31;4952510;28;20033;-78
2023/10/22 03:44:11;;;;;;;7.17;2.03;;;;;;;9.24;100.00;99638.00;5013041;28;20370;-76
2023/10/22 03:46:36;;;;;;;3.37;1.90;;;;;;;9.13;100.00;99629.63;5013764;28;20128;-79
2023/10/22 03:49:01;;;;;;;8.47;2.00;;;;;;;9.28;100.00;99644.63;5022984;28;20100;-78
2023/10/22 03:51:27;;;;;;;4.05;2.13;;;;;;;9.38;100.00;99644.38;4967191;28;20033;-77
2023/10/22 03:53:53;;;;;;;7.73;2.33;;;;;;;9.23;100.00;99631.03;4984281;28;20456;-78
2023/10/22 03:56:20;;;;;;;4.47;1.80;;;;;;;9.32;100.00;99644.25;4968503;28;20656;-76
2023/10/22 03:58:45;;;;;;;5.32;2.00;;;;;;;9.30;100.00;99639.97;4998418;28;20067;-77
2023/10/22 04:01:11;;;;;;;4.55;1.90;;;;;;;9.30;100.00;99647.94;4980485;28;20111;-76
2023/10/22 04:03:36;;;;;;;4.93;2.60;;;;;;;9.36;100.00;99645.56;4993982;28;20067;-78
2023/10/22 04:06:02;;;;;;;5.47;1.80;;;;;;;9.41;100.00;99643.19;4990130;28;20044;-77
2023/10/22 04:08:28;;;;;;;6.13;1.98;;;;;;;9.38;100.00;99640.88;5006747;28;20023;-77
2023/10/22 04:10:54;;;;;;;8.90;3.17;;;;;;;9.27;100.00;99627.00;5032680;28;20030;-76
2023/10/22 04:13:19;;;;;;;5.60;2.05;;;;;;;9.30;100.00;99631.16;5032774;28;20041;-77
2023/10/22 04:15:45;;;;;;;5.55;2.35;;;;;;;9.28;100.00;99623.31;4960982;28;20022;-78
2023/10/22 04:18:13;;;;;;;13.38;4.10;;;;;;;9.22;100.00;99620.56;4943340;28;20074;-76
2023/10/22 04:20:39;;;;;;;6.60;1.77;;;;;;;9.08;100.00;99638.16;5012824;28;20439;-77
2023/10/22 04:23:04;;;;;;;4.90;1.42;;;;;;;9.18;100.00;99643.25;5012620;28;20073;-77
2023/10/22 04:25:35;;;;;;;4.77;1.83;;;;;;;9.23;100.00;99647.03;5014367;28;20525;-76
2023/10/22 04:28:02;;;;;;;2.90;1.85;;;;;;;9.27;100.00;99648.31;5031361;28;20042;-77
2023/10/22 04:30:27;;;;;;;4.05;2.08;;;;;;;9.28;100.00;99638.50;5018432;28;20638;-77
2023/10/22 04:32:52;;;;;;;6.60;2.13;;;;;;;9.30;100.00;99625.81;4960962;28;20041;-78
2023/10/22 04:35:18;;;;;;;4.20;1.90;;;;;;;9.28;100.00;99627.84;5018627;28;20064;-77
2023/10/22 04:37:43;;;;;;;3.92;1.83;;;;;;;9.35;100.00;99622.63;5035063;28;20028;-76
2023/10/22 04:40:09;;;;;;;3.70;1.73;;;;;;;9.26;100.00;99609.38;5012852;28;20038;-78
2023/10/22 04:42:37;;;;;;;4.93;1.80;;;;;;;9.29;100.00;99609.03;5031793;28;20780;-77
2023/10/22 04:45:03;;;;;;;7.57;1.88;;;;;;;9.29;100.00;99609.03;4975816;28;20029;-77
2023/10/22 04:47:28;;;;;;;4.03;1.63;;;;;;;9.22;100.00;99613.38;4985076;28;20068;-78
2023/10/22 04:49:54;;;;;;;5.97;1.93;;;;;;;9.24;100.00;99618.53;5030983;28;20057;-75
2023/10/22 04:52:31;;;;;;;5.17;2.30;;;;;;;9.24;100.00;99624.69;5017030;28;20029;-78
2023/10/22 04:54:59;;;;;;;5.07;1.80;;;;;;;9.22;100.00;99633.88;4969853;28;20120;-77
2023/10/22 04:57:26;;;;;;;3.42;1.70;;;;;;;9.18;100.00;99616.63;4976886;28;20032;-78
2023/10/22 04:59:52;;;;;;;4.35;2.17;;;;;;;9.26;100.00;99625.34;4956101;28;20031;-77
2023/10/22 05:02:17;;;;;;;3.47;1.40;;;;;;;9.21;100.00;99626.91;4980769;28;20051;-78
2023/10/22 05:04:46;;;;;;;5.93;1.90;;;;;;;9.28;100.00;99623.31;4977449;28;20100;-77
2023/10/22 05:07:11;;;;;;;4.95;2.15;;;;;;;9.26;100.00;99617.34;4940499;28;20111;-78
2023/10/22 05:09:37;;;;;;;6.03;2.43;;;;;;;9.19;100.00;99618.25;4988317;28;20033;-77
2023/10/22 05:12:02;;;;;;;4.43;1.50;;;;;;;9.24;100.00;99611.38;4990776;28;20088;-77
2023/10/22 05:14:29;;;;;;;10.55;2.47;;;;;;;9.31;100.00;99627.47;5018445;28;20029;-78
2023/10/22 05:16:55;;;;;;;5.07;2.15;;;;;;;9.27;100.00;99613.69;5034893;28;20040;-77
2023/10/22 05:19:20;;;;;;;3.20;1.80;;;;;;;9.34;100.00;99616.47;4991642;28;20380;-77
2023/10/22 05:21:46;;;;;;;5.20;2.03;;;;;;;9.21;100.00;99601.09;4938763;28;20041;-78
2023/10/22 05:24:11;;;;;;;3.47;1.90;;;;;;;9.20;100.00;99607.44;4964044;28;20478;-77
2023/10/22 05:26:36;;;;;;;7.97;1.97;;;;;;;9.21;100.00;99613.59;5000819;28;20458;-77
2023/10/22 05:29:02;;;;;;;5.50;1.80;;;;;;;9.16;100.00;99616.78;4950114;28;20020;-78
2023/10/22 05:31:27;;;;;;;3.03;1.88;;;;;;;9.16;100.00;99611.47;5024340;28;20033;-77
2023/10/22 05:33:53;;;;;;;3.40;1.90;;;;;;;9.20;100.00;99619.91;5018802;28;20044;-77
2023/10/22 05:36:21;;;;;;;4.00;1.83;;;;;;;9.17;100.00;99628.25;4985565;28;20078;-78
2023/10/22 05:38:48;;;;;;;4.07;1.75;;;;;;;9.18;100.00;99636.09;4950410;28;20355;-78
2023/10/22 05:41:25;;;;;;;5.20;2.53;;;;;;;9.16;100.00;99618.63;5032928;28;20048;-78
2023/10/22 05:43:52;;;;;;;5.00;1.73;;;;;;;9.03;100.00;99624.56;4950120;28;20040;-77
2023/10/22 05:46:17;;;;;;;6.15;1.65;;;;;;;9.06;100.00;99641.00;5032767;28;20518;-77
2023/10/22 05:48:43;;;;;;;5.10;1.97;;;;;;;9.08;100.00;99636.34;4994316;28;20017;-76
2023/10/22 05:51:08;;;;;;;4.43;1.93;;;;;;;9.08;100.00;99651.47;4998982;28;20040;-77
2023/10/22 05:53:34;;;;;;;6.83;1.80;;;;;;;9.04;100.00;99656.34;4954040;28;20103;-76
2023/10/22 05:55:59;;;;;;;2.27;1.50;;;;;;;8.93;100.00;99662.06;4962577;28;20352;-75
2023/10/22 05:58:25;;;;;;;2.17;1.70;;;;;;;8.93;100.00;99666.59;4977535;28;20044;-78
2023/10/22 06:00:51;;;;;;;7.47;2.15;;;;;;;8.96;100.00;99684.84;4936960;28;20039;-78
2023/10/22 06:03:17;;;;;;;4.18;1.63;;;;;;;9.00;100.00;99702.94;4941337;28;20130;-78
2023/10/22 06:05:42;;;;;;;7.07;2.60;;;;;;;8.91;100.00;99703.19;4924999;28;20074;-78
2023/10/22 06:08:07;;;;;;;7.00;2.07;;;;;;;8.97;100.00;99718.47;4933810;28;20401;-78
2023/10/22 06:10:43;;;;;;;8.33;1.93;;;;;;;8.94;100.00;99708.16;4940003;28;20027;-79
2023/10/22 06:13:09;;;;;;;4.95;1.83;;;;;;;8.95;100.00;99718.63;4935203;28;20769;-78
2023/10/22 06:15:39;;;;;;;6.45;1.80;;;;;;;8.89;100.00;99714.00;4943604;28;20039;-78
2023/10/22 06:18:06;;;;;;;3.17;1.58;;;;;;;8.90;100.00;99722.81;4955008;28;20484;-77
2023/10/22 06:20:32;;;;;;;4.07;1.50;;;;;;;8.95;100.00;99721.28;4943897;28;20028;-78
2023/10/22 06:22:58;;;;;;;2.67;1.50;;;;;;;8.95;100.00;99720.47;4978111;28;20413;-77
2023/10/22 06:25:24;;;;;;;9.57;2.03;;;;;;;8.95;100.00;99717.81;4927737;28;20036;-75
2023/10/22 06:27:50;;;;;;;8.27;1.90;;;;;;;8.86;100.00;99723.19;4976293;28;20028;-77
2023/10/22 06:30:16;;;;;;;;;;;;;;;8.95;100.00;99747.91;5028977;28;20021;-76
2023/10/22 06:32:42;;;;;;;3.53;1.80;;;;;;;8.92;100.00;99732.31;4936565;28;19945;-77
2023/10/22 06:35:07;;;;;;;2.50;1.20;;;;;;;8.99;100.00;99735.06;4939321;28;20102;-78
2023/10/22 06:37:33;;;;;;;4.50;1.92;;;;;;;9.02;100.00;99724.91;4917746;28;20602;-77
2023/10/22 06:40:01;;;;;;;5.45;1.88;;;;;;;9.05;100.00;99729.03;4952810;28;20039;-77
2023/10/22 06:42:26;;;;;;;3.88;1.63;;;;;;;9.30;100.00;99733.19;4948212;28;20039;-77
2023/10/22 06:44:52;;;;;;;5.75;1.60;;;;;;;9.39;100.00;99727.78;4931621;28;20089;-76
2023/10/22 06:47:17;;;;;;;3.90;1.40;;;;;;;9.40;100.00;99706.28;4988969;28;20500;-78
2023/10/22 06:49:43;;;;;;;2.50;1.65;;;;;;;9.65;100.00;99719.41;4947314;28;20492;-77
2023/10/22 06:52:08;;;;;;;5.82;1.70;;;;;;;9.73;100.00;99712.13;4964618;28;20492;-76
2023/10/22 06:54:34;;;;;;;5.50;1.83;;;;;;;9.98;100.00;99706.56;4949550;28;20448;-77
2023/10/22 06:56:59;;;;;;;2.83;1.45;;;;;;;9.85;100.00;99639.72;5008427;28;20037;-77
2023/10/22 06:59:25;;;;;;;2.85;1.55;;;;;;;10.38;100.00;99668.94;4972368;28;20026;-77
2023/10/22 07:01:50;;;;;;;4.45;1.50;;;;;;;10.26;100.00;99593.84;4965997;28;20043;-77
2023/10/22 07:04:17;;;;;;;1.73;1.03;;;;;;;10.43;100.00;99613.97;4950790;28;20063;-77
2023/10/22 07:06:43;;;;;;;4.15;1.52;;;;;;;10.33;100.00;99594.78;5012146;28;20111;-77
2023/10/22 07:09:09;;;;;;;5.15;1.60;;;;;;;10.38;100.00;99595.03;4961249;28;20453;-77
2023/10/22 07:11:35;;;;;;;5.75;1.40;;;;;;;10.06;100.00;99572.28;4940010;28;20039;-77
2023/10/22 07:14:01;;;;;;;4.47;1.40;;;;;;;10.17;100.00;99608.31;4945809;28;20149;-76
2023/10/22 07:16:26;;;;;;;9.00;1.60;;;;;;;10.01;100.00;99599.50;4987017;28;20042;-77
2023/10/22 07:18:52;;;;;;;2.83;1.40;;;;;;;10.04;100.00;99607.13;4966968;28;20428;-77
2023/10/22 07:21:17;;;;;;;3.83;1.13;;;;;;;10.50;100.00;99617.53;4941613;28;20055;-77
2023/10/22 07:23:43;;;;;;;5.97;1.60;;;;;;;10.74;100.00;99572.78;4929729;28;20042;-77
2023/10/22 07:26:08;;;;;;;7.70;1.63;;;;;;;10.98;100.00;99551.03;4945902;28;20035;-77
2023/10/22 07:28:33;;;;;;;5.23;2.10;;;;;;;11.44;100.00;99506.91;4987310;28;20071;-77
2023/10/22 07:30:59;;;;;;;10.43;1.73;;;;;;;11.66;100.00;99435.44;4945617;28;20047;-78
2023/10/22 07:33:28;;;;;;;5.70;2.47;;;;;;;11.55;100.00;99356.66;4991995;28;20494;-77
2023/10/22 07:35:54;;;;;;;5.32;1.50;;;;;;;11.65;100.00;99315.34;5030750;28;20021;-78
2023/10/22 07:38:20;;;;;;;4.50;1.02;;;;;;;11.58;100.00;99272.56;4990117;28;20039;-77
2023/10/22 07:40:46;;;;;;;3.40;1.40;;;;;;;11.88;100.00;99288.25;5027960;28;20013;-77
2023/10/22 07:43:11;;;;;;;2.95;1.58;;;;;;;12.21;100.00;99278.31;5030916;28;20510;-77
2023/10/22 07:45:38;;;;;;;1.83;1.40;;;;;;;12.27;100.00;99183.00;5020165;28;20137;-77
2023/10/22 07:48:04;;;;;;;3.08;1.23;;;;;;;12.43;100.00;99222.69;4998631;28;20128;-76
2023/10/22 07:50:29;;;;;;;6.97;1.27;;;;;;;13.05;100.00;99176.63;5029422;28;20030;-77
2023/10/22 07:52:54;;;;;;;3.30;1.67;;;;;;;13.04;100.00;98988.28;5002272;28;20354;-76
2023/10/22 07:55:20;;;;;;;4.13;1.80;;;;;;;12.91;100.00;99009.81;4986723;28;20064;-76
2023/10/22 07:57:45;;;;;;;2.03;1.20;;;;;;;13.27;100.00;98941.22;5012520;28;20037;-77
2023/10/22 08:00:11;;;;;;;6.90;1.03;;;;;;;13.35;100.00;98892.72;5004522;28;20284;-76
2023/10/22 08:02:39;;;;;;;4.40;1.35;;;;;;;13.34;100.00;98880.34;4970997;28;20024;-77
2023/10/22 08:05:05;;;;;;;3.90;1.20;;;;;;;13.72;100.00;98872.03;5028970;28;20038;-76
2023/10/22 08:07:31;;;;;;;3.72;1.52;;;;;;;13.18;100.00;98795.19;5012444;28;20080;-76
2023/10/22 08:09:56;;;;;;;3.57;1.50;;;;;;;12.76;100.00;98779.03;4969517;28;20036;-75
2023/10/22 08:12:21;;;;;;;3.53;1.27;;;;;;;13.22;100.00;98941.91;4985253;28;20129;-77
2023/10/22 08:14:47;;;;;;;4.27;1.40;;;;;;;13.50;100.00;98885.09;4941430;28;20040;-76
2023/10/22 08:17:12;;;;;;;3.37;1.30;;;;;;;13.89;100.00;98780.97;4970325;28;20287;-76
2023/10/22 08:19:37;;;;;;;3.13;1.20;;;;;;;14.13;100.00;98803.25;4922543;28;20046;-76
2023/10/22 08:22:03;;;;;;;2.83;1.17;;;;;;;13.93;100.00;98808.97;4933118;28;20134;-76
2023/10/22 08:24:29;;;;;;;4.47;1.15;;;;;;;15.07;100.00;98888.31;4940159;28;20404;-77
2023/10/22 08:26:58;;;;;;;4.13;1.57;;;;;;;14.25;100.00;98708.50;5028825;28;20034;-76
2023/10/22 08:29:23;;;;;;;3.53;1.20;;;;;;;14.96;100.00;98720.72;4987345;28;20037;-76
2023/10/22 08:31:48;;;;;;;4.47;1.33;;;;;;;15.21;100.00;98622.75;4974952;28;20178;-77
2023/10/22 08:34:14;;;;;;;2.27;1.10;;;;;;;14.51;100.00;98234.63;4988631;28;20069;-76
2023/10/22 08:36:39;;;;;;;7.23;1.33;;;;;;;14.15;100.00;98565.00;5011936;28;20129;-77
2023/10/22 08:39:05;;;;;;;4.63;1.43;;;;;;;14.95;100.00;98645.72;4965333;28;20047;-77
2023/10/22 08:41:45;;;;;;;6.38;1.25;;;;;;;16.11;100.00;98652.31;4926271;28;20028;-76
2023/10/22 08:44:14;;;;;;;4.72;1.55;;;;;;;15.63;100.00;98286.94;4929634;28;20043;-76
2023/10/22 08:46:39;;;;;;;5.28;1.20;;;;;;;15.08;100.00;98411.63;4927762;28;20023;-76
2023/10/22 08:49:06;;;;;;;6.47;1.70;;;;;;;15.57;100.00;98521.94;4930527;28;20081;-76
2023/10/22 08:51:31;;;;;;;3.00;1.40;;;;;;;16.34;100.00;98656.66;4950712;28;20039;-76
2023/10/22 08:53:57;;;;;;;6.18;2.25;;;;;;;15.97;100.00;98625.00;5030280;28;20046;-77
2023/10/22 08:56:22;;;;;;;5.53;1.85;;;;;;;16.64;100.00;98422.63;5031893;28;20028;-77
2023/10/22 08:58:49;;;;;;;5.67;1.10;;;;;;;15.51;100.00;98259.41;4969245;28;20033;-77
2023/10/22 09:01:15;;;;;;;4.95;0.95;;;;;;;15.62;100.00;98580.38;5002111;28;20043;-75
2023/10/22 09:03:41;;;;;;;6.18;1.30;;;;;;;15.72;100.00;98692.69;5000011;28;20519;-76
2023/10/22 09:06:07;;;;;;;4.07;1.15;;;;;;;16.42;100.00;98554.69;5015444;28;20037;-76
2023/10/22 09:08:43;;;;;;;3.77;0.80;;;;;;;16.66;100.00;98328.09;4963599;28;20043;-76
2023/10/22 09:11:17;;;;;;;4.90;1.00;;;;;;;16.65;100.00;98353.41;4915583;28;20042;-75
2023/10/22 09:13:46;;;;;;;2.63;1.00;;;;;;;15.57;100.00;98188.47;4825371;28;20058;-76
2023/10/22 09:16:29;;;;;;;2.78;0.90;;;;;;;15.10;100.00;98554.63;4915039;28;20071;-76
2023/10/22 09:18:54;;;;;;;3.97;1.30;;;;;;;15.01;100.00;98733.44;4926186;28;20497;-75
2023/10/22 09:21:20;;;;;;;6.90;2.08;;;;;;;14.87;100.00;98667.63;4975278;28;20068;-75
2023/10/22 09:24:05;;;;;;;3.08;1.00;;;;;;;13.64;100.00;98783.03;4931565;28;20058;-75
2023/10/22 09:26:43;;;;;;;3.05;1.02;;;;;;;12.89;100.00;98959.16;4930920;28;20039;-75
2023/10/22 09:29:08;;;;;;;2.80;0.90;;;;;;;13.04;100.00;99201.75;4932521;28;20050;-75
2023/10/22 09:31:34;;;;;;;4.80;1.10;;;;;;;12.98;100.00;99315.16;4963707;28;20024;-75
2023/10/22 09:33:59;;;;;;;3.30;1.40;;;;;;;12.76;100.00;99371.69;4973695;28;20404;-75
2023/10/22 09:36:25;;;;;;;2.57;1.00;;;;;;;13.00;100.00;99414.88;5013027;28;20026;-75
2023/10/22 09:38:52;;;;;;;12.80;1.48;;;;;;;13.02;100.00;99440.44;4931841;28;20431;-75
2023/10/22 09:41:23;;;;;;;2.67;0.98;;;;;;;12.74;100.00;99454.09;4982170;28;20121;-75
2023/10/22 09:43:53;;;;;;;6.07;1.20;;;;;;;12.76;100.00;99472.59;4968338;28;20394;-73
2023/10/22 09:46:19;;;;;;;4.50;1.00;;;;;;;12.91;100.00;99461.69;4857666;28;20047;-75
2023/10/22 09:48:47;;;;;;;5.72;1.05;;;;;;;13.00;100.00;99544.31;4886252;28;20326;-74
2023/10/22 09:51:15;;;;;;;5.43;1.63;;;;;;;13.32;100.00;99546.34;4953607;28;20042;-75
2023/10/22 09:53:53;;;;;;;3.00;0.73;;;;;;;13.20;100.00;99511.28;4872923;28;20024;-76
2023/10/22 09:56:21;;;;;;;3.33;1.05;;;;;;;12.84;100.00;99513.41;4928312;28;20131;-76
2023/10/22 09:58:52;;;;;;;2.28;1.05;;;;;;;12.74;100.00;99464.78;4946975;28;20028;-75
2023/10/22 10:01:19;;;;;;;1.98;0.80;;;;;;;12.99;100.00;99501.63;4905085;28;20036;-74
2023/10/22 10:03:45;;;;;;;1.85;0.98;;;;;;;13.23;100.00;99556.44;4994829;28;20121;-75
2023/10/22 10:06:11;;;;;;;4.22;1.40;;;;;;;13.15;100.00;99532.53;4992846;28;20033;-75
2023/10/22 10:08:40;;;;;;;1.38;0.90;;;;;;;12.96;100.00;99510.09;5024559;28;20038;-75
2023/10/22 10:11:08;;;;;;;3.13;0.80;;;;;;;13.44;100.00;99615.19;4932274;28;20038;-75
2023/10/22 10:13:36;;;;;;;1.67;0.82;;;;;;;13.35;100.00;99532.53;4935738;28;20048;-75
2023/10/22 10:16:04;;;;;;;6.80;1.33;;;;;;;13.29;100.00;99467.16;4967642;28;20027;-75
2023/10/22 10:19:10;;;;;;;2.63;1.00;;;;;;;13.31;100.00;99540.16;4957932;28;20112;-75
2023/10/22 10:21:46;;;;;;;3.83;1.10;;;;;;;13.43;100.00;99514.34;4985939;28;20078;-75
2023/10/22 10:24:14;;;;;;;2.88;0.98;;;;;;;13.24;100.00;99507.16;4916419;28;20044;-75
2023/10/22 10:26:40;;;;;;;3.05;1.00;;;;;;;13.21;100.00;99542.44;4930824;28;20105;-75
2023/10/22 10:29:06;;;;;;;2.53;0.85;;;;;;;12.84;100.00;99537.50;4931071;28;20477;-75
2023/10/22 10:31:32;;;;;;;3.00;0.98;;;;;;;12.56;100.00;99580.53;4949350;28;20071;-75
2023/10/22 10:34:01;;;;;;;2.03;1.07;;;;;;;12.89;100.00;99657.44;5030534;28;20072;-75
2023/10/22 10:36:28;;;;;;;3.70;1.30;;;;;;;12.83;100.00;99655.56;5000732;28;20041;-75
2023/10/22 10:38:53;;;;;;;;;;;;;;;12.96;100.00;99655.56;4982667;28;20045;-75
2023/10/22 10:41:54;;;;;;;2.60;1.10;;;;;;;12.74;100.00;99676.38;5007335;28;19913;-75
2023/10/22 10:44:20;;;;;;;4.38;1.33;;;;;;;12.59;100.00;99703.28;4970418;28;20055;-74
2023/10/22 10:46:45;;;;;;;5.53;1.80;;;;;;;12.57;100.00;99796.41;5024784;28;20264;-75
2023/10/22 10:49:10;;;;;;;5.43;1.10;;;;;;;12.30;100.00;99799.94;4972705;28;20136;-75
2023/10/22 10:51:36;;;;;;;4.80;1.20;;;;;;;12.33;100.00;99837.03;5030393;28;20025;-75
2023/10/22 10:54:02;;;;;;;3.08;1.80;;;;;;;12.29;100.00;99900.84;5013635;28;20029;-74
2023/10/22 10:56:55;;;;;;;6.03;1.75;;;;;;;12.05;100.00;99952.88;4989437;28;20110;-75
2023/10/22 10:59:35;;;;;;;3.33;2.03;;;;;;;12.03;100.00;99997.72;4985906;28;20121;-75
2023/10/22 11:02:07;;;;;;;4.40;1.70;;;;;;;11.82;100.00;99980.63;5006853;28;20040;-75
2023/10/22 11:04:37;;;;;;;4.88;1.67;;;;;;;11.71;100.00;99999.00;5009314;28;20048;-75
2023/10/22 11:07:04;;;;;;;5.28;1.90;;;;;;;11.71;100.00;100017.72;4966302;28;20037;-75
2023/10/22 11:09:30;;;;;;;;;;;;;;;11.83;100.00;100025.06;4919200;28;20024;-75
2023/10/22 11:12:03;;;;;;;6.18;1.88;;;;;;;11.68;100.00;100010.06;4926648;28;20387;-74
2023/10/22 11:14:28;;;;;;;1.88;1.60;;;;;;;11.77;100.00;100020.47;4942694;28;20130;-75
2023/10/22 11:16:56;;;;;;;3.78;1.83;;;;;;;11.58;100.00;100015.72;4958600;28;20031;-74
2023/10/22 11:19:23;;;;;;;3.78;1.50;;;;;;;11.61;100.00;100005.50;5029701;28;20073;-75
2023/10/22 11:21:49;;;;;;;6.55;2.20;;;;;;;11.48;100.00;99999.97;4990488;28;20083;-75
2023/10/22 11:24:15;;;;;;;3.22;1.35;;;;;;;11.52;100.00;100030.66;4984388;28;20043;-75
2023/10/22 11:26:41;;;;;;;5.38;2.33;;;;;;;11.40;100.00;100016.94;4944030;28;20051;-75
2023/10/22 11:29:06;;;;;;;3.95;2.30;;;;;;;11.44;100.00;100021.91;4969723;28;20091;-75
2023/10/22 11:31:32;;;;;;;3.47;2.53;;;;;;;11.37;100.00;100019.97;5029182;28;20041;-75